Flight Track Log - Related Links

Times and Time Zones

All times are in EDT time to prevent confusion due to time zone crossing. See the SWA407 flight status page for this flight to view local times or setup timezone preferences in your user account.

Time Position Orientation Groundspeed Altitude Reporting Facility
EDT Latitude Longitude Course Direction KTS MPH feet Rate Location/Type
Thu 03:43:51 PM 27.9667 -82.5500 180° South 152 175 800  Level Tampa TRACON
Thu 03:44:15 PM 27.9500 -82.5500 180° South 175 201 1,400 2,077 Climbing Tampa TRACON
Thu 03:45:09 PM 27.9000 -82.5667 196° South 207 238 3,500 2,684 Climbing Tampa TRACON
Thu 03:46:09 PM 27.8667 -82.6167 233° Southwest 226 260 6,500 2,278 Climbing Tampa TRACON
Thu 03:48:16 PM 28.0183 -82.6481 350° North 239 275 10,600 1,957 Climbing Jacksonville Center
Thu 03:49:16 PM 28.1206 -82.6525 358° North 324 373 12,600 2,300 Climbing Jacksonville Center
Thu 03:50:16 PM 28.2247 -82.6569 358° North 349 402 15,200 2,500 Climbing Jacksonville Center
Thu 03:51:16 PM 28.3333 -82.6592 359° North 373 429 17,600 2,350 Climbing Jacksonville Center
Thu 03:52:16 PM 28.4503 -82.6658 357° North 389 448 19,900 2,300 Climbing Jacksonville Center
Thu 03:53:16 PM 28.5714 -82.6656 360° North 413 475 22,200 1,800 Climbing Jacksonville Center
Thu 03:54:16 PM 28.6672 -82.6703 358° North 425 489 23,500 1,500 Climbing Jacksonville Center
Thu 03:55:16 PM 28.8072 -82.6697 360° North 436 502 25,200 1,700 Climbing Jacksonville Center
Thu 03:56:16 PM 28.9344 -82.6767 357° North 447 514 26,900 1,400 Climbing Jacksonville Center
Thu 03:57:16 PM 29.0639 -82.6836 357° North 452 520 28,000 1,200 Climbing Jacksonville Center
Thu 03:58:16 PM 29.1911 -82.6856 359° North 457 526 29,300 1,400 Climbing Jacksonville Center
Thu 03:59:16 PM 29.3206 -82.6900 358° North 457 526 30,800 1,350 Climbing Jacksonville Center
Thu 04:00:16 PM 29.4500 -82.6922 359° North 457 526 32,000 1,050 Climbing Jacksonville Center
Thu 04:01:16 PM 29.5794 -82.6944 359° North 457 526 32,900 500 Climbing Jacksonville Center
Thu 04:02:16 PM 29.7089 -82.6917 North 457 526 33,000  Climbing Jacksonville Center
Thu 04:03:16 PM 29.8383 -82.6914 360° North 457 526 32,900 -50 Descending Jacksonville Center
Thu 04:04:16 PM 29.9678 -82.6936 359° North 457 526 32,900 650 Level Jacksonville Center
Thu 04:05:16 PM 30.0972 -82.6886 North 457 526 34,200 1,050 Climbing Jacksonville Center
Thu 04:06:16 PM 30.2247 -82.6858 North 457 526 35,000 400 Climbing Jacksonville Center
Thu 04:07:16 PM 30.3500 -82.6881 359° North 457 526 35,000 -50 Level Jacksonville Center
Thu 04:08:16 PM 30.4772 -82.6853 North 457 526 34,900  Descending Jacksonville Center
Thu 04:09:16 PM 30.6067 -82.6731 North 457 526 35,000 50 Climbing Jacksonville Center
Thu 04:10:16 PM 30.7339 -82.6508 North 462 532 35,000  Level Jacksonville Center
Thu 04:11:16 PM 30.8633 -82.6264 North 462 532 35,000 350 Level Jacksonville Center
Thu 04:12:16 PM 30.9844 -82.5606 25° Northeast 468 539 35,700 800 Climbing Jacksonville Center
Thu 04:13:16 PM 31.1031 -82.4825 29° Northeast 474 545 36,600 650 Climbing Jacksonville Center
Thu 04:14:16 PM 31.2261 -82.4092 27° Northeast 479 551 37,000 200 Climbing Jacksonville Center
Thu 04:15:16 PM 31.3556 -82.3939 North 470 541 37,000  Level Jacksonville Center
Thu 04:16:16 PM 31.4806 -82.3714 North 458 527 37,000  Level Jacksonville Center
Thu 04:17:16 PM 31.6081 -82.3558 North 458 527 37,000  Level Jacksonville Center
Thu 04:18:16 PM 31.7353 -82.3406 North 458 527 37,000  Level Jacksonville Center
Thu 04:19:51 PM 31.9475 -82.3158 North 458 527 37,000  Level Atlanta Center
Thu 04:20:51 PM 32.0661 -82.3036 North 463 533 37,000  Level Atlanta Center
Thu 04:21:51 PM 32.1911 -82.2864 North 458 527 37,000  Level Atlanta Center
Thu 04:22:51 PM 32.3161 -82.2692 North 458 527 37,000  Level Atlanta Center
Thu 04:23:51 PM 32.4411 -82.2544 North 458 527 37,000  Level Atlanta Center
Thu 04:24:51 PM 32.5706 -82.2394 North 458 527 37,000  Level Atlanta Center
Thu 04:25:51 PM 32.6975 -82.2222 North 463 533 37,000  Level Atlanta Center
Thu 04:26:51 PM 32.8289 -82.2069 North 463 533 37,000  Level Atlanta Center
Thu 04:27:51 PM 32.9558 -82.1919 North 463 533 37,000  Level Atlanta Center
Thu 04:28:51 PM 33.0892 -82.1767 North 463 533 37,000  Level Atlanta Center
Thu 04:29:51 PM 33.2206 -82.1592 North 468 539 37,000  Level Atlanta Center
Thu 04:30:51 PM 33.3497 -82.1414 North 468 539 37,000  Level Atlanta Center
Thu 04:31:51 PM 33.4789 -82.1261 North 468 539 37,000  Level Atlanta Center
Thu 04:32:51 PM 33.6225 -82.1081 North 468 539 37,000  Level Atlanta Center
Thu 04:33:51 PM 33.7536 -82.0900 North 468 539 37,000  Level Atlanta Center
Thu 04:34:51 PM 33.8850 -82.0744 North 468 539 37,000  Level Atlanta Center
Thu 04:35:51 PM 34.0161 -82.0589 North 463 533 37,000  Level Atlanta Center
Thu 04:36:51 PM 34.1433 -82.0433 North 463 533 37,000  Level Atlanta Center
Thu 04:37:51 PM 34.2725 -82.0253 North 458 527 37,000  Level Atlanta Center
Thu 04:38:51 PM 34.3994 -82.0097 North 458 527 37,000  Level Atlanta Center
Thu 04:39:51 PM 34.5306 -81.9939 North 458 527 37,000  Level Atlanta Center
Thu 04:40:51 PM 34.6578 -81.9781 North 463 533 37,000  Level Atlanta Center
Thu 04:41:51 PM 34.7867 -81.9597 North 463 533 37,000  Level Atlanta Center
Thu 04:42:51 PM 34.9033 -81.9469 North 463 533 37,000  Level Atlanta Center
Thu 04:43:51 PM 35.0408 -81.9306 North 458 527 37,000  Level Atlanta Center
Thu 04:44:51 PM 35.1681 -81.9247 North 458 527 37,000 -50 Level Atlanta Center
Thu 04:45:51 PM 35.2953 -81.9217 North 458 527 36,900  Descending Atlanta Center
Thu 04:46:51 PM 35.4203 -81.9158 North 453 521 37,000 50 Climbing Atlanta Center
Thu 04:47:51 PM 35.5369 -81.9078 North 453 521 37,000  Level Atlanta Center
Thu 04:48:51 PM 35.6642 -81.9044 North 458 527 37,000  Level Atlanta Center
Thu 04:49:51 PM 35.7956 -81.8958 North 465 535 37,000  Level Atlanta Center
Thu 04:50:51 PM 35.9164 -81.8900 North 453 521 37,000  Level Atlanta Center
Thu 04:51:51 PM 36.0456 -81.8842 North 453 521 37,000  Level Atlanta Center
Thu 04:52:51 PM 36.1872 -81.8753 North 461 531 37,000  Level Atlanta Center
Thu 04:53:51 PM 36.3122 -81.8692 North 451 519 37,000  Level Atlanta Center
Thu 04:54:51 PM 36.4394 -81.8633 North 462 532 37,000  Level Atlanta Center
Thu 04:55:51 PM 36.5686 -81.8544 North 462 532 37,000  Level Atlanta Center
Thu 04:56:51 PM 36.7000 -81.8508 North 462 532 37,000  Level Atlanta Center
Thu 04:58:48 PM 36.9586 -81.8378 North 474 545 37,000  Level Indianapolis Center
Thu 04:59:50 PM 37.0911 -81.8308 North 476 548 37,000  Level Indianapolis Center
Thu 05:00:52 PM 37.2217 -81.8247 North 472 543 37,000  Level Indianapolis Center
Thu 05:01:55 PM 37.3558 -81.8186 North 477 549 37,000  Level Indianapolis Center
Thu 05:02:57 PM 37.4867 -81.8131 North 472 543 37,000  Level Indianapolis Center
Thu 05:03:59 PM 37.6394 -81.8053 North 471 542 37,000  Level Indianapolis Center
Thu 05:05:01 PM 37.7703 -81.7992 North 471 542 37,000  Level Indianapolis Center
Thu 05:06:03 PM 37.8878 -81.7922 North 475 547 37,000  Level Indianapolis Center
Thu 05:07:05 PM 38.0461 -81.7861 North 474 545 37,000  Level Indianapolis Center
Thu 05:08:07 PM 38.1789 -81.7789 North 475 547 37,000  Level Indianapolis Center
Thu 05:09:09 PM 38.3117 -81.7711 North 475 547 37,000  Level Indianapolis Center
Thu 05:10:11 PM 38.4347 -81.6981 25° Northeast 488 562 37,000  Level Indianapolis Center
Thu 05:11:13 PM 38.5489 -81.5986 34° Northeast 498 573 37,000  Level Indianapolis Center
Thu 05:12:15 PM 38.6722 -81.4925 34° Northeast 494 568 37,000  Level Indianapolis Center
Thu 05:13:17 PM 38.7833 -81.3944 35° Northeast 487 560 37,000  Level Indianapolis Center
Thu 05:14:19 PM 38.9028 -81.2919 34° Northeast 496 571 37,000  Level Indianapolis Center
Thu 05:15:21 PM 39.0147 -81.1936 34° Northeast 489 563 37,000  Level Indianapolis Center
Thu 05:16:23 PM 39.1500 -81.0756 34° Northeast 491 565 37,000  Level Indianapolis Center
Thu 05:17:26 PM 39.2622 -80.9756 35° Northeast 490 564 37,000  Level Indianapolis Center
Thu 05:18:28 PM 39.3744 -80.8758 34° Northeast 489 563 37,000  Level Indianapolis Center
Thu 05:19:30 PM 39.4864 -80.7758 35° Northeast 489 563 37,000  Level Indianapolis Center
Thu 05:20:32 PM 39.6006 -80.6753 34° Northeast 495 570 37,000  Level Indianapolis Center
Thu 05:20:57 PM 39.6647 -80.6181 34° Northeast 490 564 37,000  Level Cleveland Center
Thu 05:21:57 PM 39.7900 -80.5561 21° North 478 550 37,000  Level Cleveland Center
Thu 05:22:57 PM 39.9211 -80.5128 14° North 478 550 37,000  Level Cleveland Center
Thu 05:23:57 PM 40.0506 -80.4692 14° North 478 550 37,000  Level Cleveland Center
Thu 05:24:57 PM 40.1797 -80.4283 14° North 478 550 37,000 -400 Level Cleveland Center
Thu 05:25:57 PM 40.3131 -80.3844 14° North 478 550 36,200 -800 Descending Cleveland Center
Thu 05:26:57 PM 40.4297 -80.3458 14° North 478 550 35,400 -900 Descending Cleveland Center
Thu 05:27:57 PM 40.5608 -80.3044 13° North 473 544 34,400 -1,000 Descending Cleveland Center
Thu 05:28:57 PM 40.6881 -80.2600 15° North 473 544 33,400 -700 Descending Cleveland Center
Thu 05:29:57 PM 40.8025 -80.2650 358° North 449 517 33,000 -650 Descending Cleveland Center
Thu 05:30:57 PM 40.9028 -80.3633 323° Northwest 402 463 32,100 -500 Descending Cleveland Center
Thu 05:31:57 PM 40.9906 -80.4647 319° Northwest 402 463 32,000 -500 Descending Cleveland Center
Thu 05:32:57 PM 41.1033 -80.5114 343° North 412 474 31,100 -950 Descending Cleveland Center
Thu 05:33:57 PM 41.2219 -80.4258 28° Northeast 413 475 30,100 -1,000 Descending Cleveland Center
Thu 05:34:57 PM 41.3344 -80.3261 34° Northeast 440 506 29,100 -1,000 Descending Cleveland Center
Thu 05:35:57 PM 41.4425 -80.2258 35° Northeast 462 532 28,100 -1,000 Descending Cleveland Center
Thu 05:36:57 PM 41.5525 -80.1308 33° Northeast 468 539 27,100 -1,050 Descending Cleveland Center
Thu 05:37:57 PM 41.6544 -80.0356 35° Northeast 460 529 26,000 -1,050 Descending Cleveland Center
Thu 05:38:57 PM 41.7581 -79.9431 34° Northeast 446 513 25,000 -1,000 Descending Cleveland Center
Thu 05:39:57 PM 41.8617 -79.8528 33° Northeast 446 513 24,000 -1,050 Descending Cleveland Center
Thu 05:40:57 PM 41.9717 -79.7536 34° Northeast 436 502 22,900 -1,750 Descending Cleveland Center
Thu 05:41:57 PM 42.0708 -79.6600 35° Northeast 436 502 20,500 -2,200 Descending Cleveland Center
Thu 05:42:57 PM 42.1703 -79.5692 34° Northeast 436 502 18,500 -2,000 Descending Cleveland Center
Thu 05:43:57 PM 42.2633 -79.4833 34° Northeast 424 488 16,500 -2,250 Descending Cleveland Center
Thu 05:44:57 PM 42.3500 -79.4061 33° Northeast 398 458 14,000 -2,700 Descending Cleveland Center
Thu 05:45:57 PM 42.4367 -79.3283 34° Northeast 380 437 11,100 -1,850 Descending Cleveland Center
Thu 05:46:57 PM 42.5150 -79.2564 34° Northeast 380 437 10,300 -1,050 Descending Cleveland Center
Thu 05:47:57 PM 42.5936 -79.1872 33° Northeast 325 374 9,000 -650 Descending Cleveland Center
Thu 05:48:57 PM 42.6489 -79.1153 44° Northeast 291 335 9,000 -450 Level Cleveland Center
Thu 05:49:57 PM 42.7000 -79.0464 45° Northeast 264 304 8,100 -1,100 Descending Cleveland Center
Thu 05:50:57 PM 42.7472 -78.9858 43° Northeast 255 293 6,800 -1,500 Descending Cleveland Center
Thu 05:51:57 PM 42.8025 -78.9164 43° Northeast 247 284 5,100 -1,300 Descending Cleveland Center
Thu 05:52:57 PM 42.8414 -78.8644 44° Northeast 217 250 4,200 -423 Descending Cleveland Center
Thu 05:54:33 PM 42.8667 -78.7833 67° East 149 171 4,000 -77 Descending Buffalo TRACON
Thu 05:55:33 PM 42.8167 -78.8000 194° South 176 203 4,000  Level Buffalo TRACON
Thu 05:56:33 PM 42.7833 -78.8333 216° Southwest 171 197 4,000 -550 Level Buffalo TRACON
Thu 05:57:33 PM 42.7833 -78.9000 270° West 197 227 2,900 -843 Descending Buffalo TRACON
Thu 05:58:34 PM 42.8167 -78.8833 20° North 152 175 2,300 -298 Descending Buffalo TRACON
Thu 05:59:34 PM 42.8500 -78.8500 36° Northeast 130 150 2,300  Level Buffalo TRACON

Login

Don't have an account? Register now (free) for customized features, flight alerts, and more!